createdAt,value
2019-02-05T00:01:45.370Z,95594.27
2019-02-05T00:04:19.720Z,95596.67
2019-02-05T00:06:53.464Z,95594.41
2019-02-05T00:09:27.831Z,95593.70
2019-02-05T00:12:02.285Z,95590.72
2019-02-05T00:14:37.334Z,95589.90
2019-02-05T00:17:12.027Z,95594.01
2019-02-05T00:19:46.166Z,95584.66
2019-02-05T00:22:20.128Z,95578.48
2019-02-05T00:24:54.731Z,95580.27
2019-02-05T00:27:28.492Z,95585.97
2019-02-05T00:30:02.946Z,95586.95
2019-02-05T00:32:37.079Z,95589.12
2019-02-05T00:35:12.232Z,95577.91
2019-02-05T00:37:51.403Z,95588.22
2019-02-05T00:40:25.837Z,95591.42
2019-02-05T00:43:00.642Z,95594.86
2019-02-05T00:45:34.799Z,95589.36
2019-02-05T00:48:09.115Z,95589.58
2019-02-05T00:50:44.098Z,95586.28
2019-02-05T00:53:18.399Z,95584.19
2019-02-05T00:55:52.091Z,95581.86
2019-02-05T00:58:27.005Z,95575.13
2019-02-05T01:01:01.396Z,95575.88
2019-02-05T01:03:35.971Z,95569.00
2019-02-05T01:06:10.293Z,95561.42
2019-02-05T01:08:54.208Z,95555.22
2019-02-05T01:11:40.692Z,95559.16
2019-02-05T01:14:27.259Z,95552.64
2019-02-05T01:17:13.793Z,95549.02
2019-02-05T01:19:48.155Z,95549.80
2019-02-05T01:22:23.343Z,95548.59
2019-02-05T01:24:57.495Z,95544.19
2019-02-05T01:27:31.580Z,95539.52
2019-02-05T01:30:06.130Z,95538.70
2019-02-05T01:32:40.261Z,95549.06
2019-02-05T01:35:14.572Z,95546.71
2019-02-05T01:37:57.904Z,95544.94
2019-02-05T01:40:33.525Z,95539.91
2019-02-05T01:43:07.884Z,95551.72
2019-02-05T01:45:45.049Z,95544.94
2019-02-05T01:48:19.290Z,95547.38
2019-02-05T01:50:54.834Z,95542.69
2019-02-05T01:53:29.000Z,95542.20
2019-02-05T01:56:15.377Z,95531.61
2019-02-05T01:59:00.398Z,95533.73
2019-02-05T02:01:35.070Z,95543.89
2019-02-05T02:04:09.386Z,95544.64
2019-02-05T02:06:44.740Z,95531.14
2019-02-05T02:09:20.555Z,95555.03
2019-02-05T02:11:55.013Z,95545.78
2019-02-05T02:14:30.490Z,95538.02
2019-02-05T02:17:04.494Z,95540.52
2019-02-05T02:19:39.973Z,95554.40
2019-02-05T02:22:14.254Z,95544.00
2019-02-05T02:24:48.182Z,95550.66
2019-02-05T02:27:22.286Z,95549.36
2019-02-05T02:30:07.459Z,95553.19
2019-02-05T02:32:43.307Z,95547.31
2019-02-05T02:35:19.133Z,95553.05
2019-02-05T02:37:53.636Z,95550.11
2019-02-05T02:40:27.971Z,95549.22
2019-02-05T02:43:01.949Z,95548.09
2019-02-05T02:45:36.366Z,95545.61
2019-02-05T02:48:10.643Z,95537.61
2019-02-05T02:50:46.668Z,95539.17
2019-02-05T02:53:21.023Z,95543.73
2019-02-05T02:55:55.504Z,95548.28
2019-02-05T02:58:29.729Z,95548.03
2019-02-05T03:01:03.877Z,95537.64
2019-02-05T03:03:39.015Z,95532.90
2019-02-05T03:06:13.016Z,95537.41
2019-02-05T03:08:46.932Z,95522.62
2019-02-05T03:11:22.100Z,95530.62
2019-02-05T03:13:56.498Z,95535.23
2019-02-05T03:16:31.210Z,95528.22
2019-02-05T03:19:05.496Z,95523.11
2019-02-05T03:21:39.623Z,95526.91
2019-02-05T03:24:14.414Z,95529.22
2019-02-05T03:26:51.017Z,95524.54
2019-02-05T03:29:25.012Z,95527.66
2019-02-05T03:31:59.859Z,95525.53
2019-02-05T03:34:34.334Z,95523.19
2019-02-05T03:37:08.484Z,95524.82
2019-02-05T03:39:52.975Z,95519.05
2019-02-05T03:42:39.121Z,95525.05
2019-02-05T03:45:26.764Z,95525.00
2019-02-05T03:48:12.865Z,95526.92
2019-02-05T03:50:51.324Z,95528.64
2019-02-05T03:53:27.782Z,95529.31
2019-02-05T03:56:17.613Z,95524.36
2019-02-05T03:59:29.277Z,95529.11
2019-02-05T04:02:36.106Z,95520.25
2019-02-05T04:06:01.596Z,95523.31
2019-02-05T04:09:18.714Z,95530.73
2019-02-05T04:12:10.556Z,95529.80
2019-02-05T04:15:14.284Z,95529.66
2019-02-05T04:18:09.203Z,95521.28
2019-02-05T04:21:19.436Z,95523.03
2019-02-05T04:24:38.949Z,95527.27
2019-02-05T04:27:24.822Z,95540.86
2019-02-05T04:30:57.642Z,95528.20
2019-02-05T04:34:13.086Z,95522.64
2019-02-05T04:37:26.720Z,95519.36
2019-02-05T04:40:44.982Z,95510.52
2019-02-05T04:44:01.305Z,95506.27
2019-02-05T04:47:07.870Z,95514.20
2019-02-05T04:50:19.015Z,95519.42
2019-02-05T04:53:25.174Z,95515.45
2019-02-05T04:56:34.277Z,95526.69
2019-02-05T04:59:40.683Z,95521.37
2019-02-05T05:03:07.872Z,95524.83
2019-02-05T05:06:34.589Z,95512.37
2019-02-05T05:09:53.705Z,95504.92
2019-02-05T05:12:29.570Z,95522.53
2019-02-05T05:15:15.681Z,95531.72
2019-02-05T05:18:01.188Z,95529.55
2019-02-05T05:20:47.228Z,95535.83
2019-02-05T05:23:22.274Z,95531.58
2019-02-05T05:26:05.816Z,95536.79
2019-02-05T05:28:43.830Z,95535.06
2019-02-05T05:31:23.786Z,95527.99
2019-02-05T05:33:58.361Z,95541.52
2019-02-05T05:36:33.242Z,95544.75
2019-02-05T05:39:10.093Z,95546.56
2019-02-05T05:41:44.294Z,95549.67
2019-02-05T05:44:18.646Z,95548.05
2019-02-05T05:46:53.974Z,95546.41
2019-02-05T05:49:29.055Z,95544.44
2019-02-05T05:52:04.736Z,95552.82
2019-02-05T05:54:39.537Z,95559.02
2019-02-05T05:57:13.867Z,95570.46
2019-02-05T05:59:48.526Z,95562.34
2019-02-05T06:02:23.013Z,95564.53
2019-02-05T06:04:57.299Z,95566.48
2019-02-05T06:07:31.736Z,95560.28
2019-02-05T06:10:07.338Z,95558.18
2019-02-05T06:12:55.444Z,95564.15
2019-02-05T06:15:42.075Z,95570.03
2019-02-05T06:18:25.491Z,95562.17
2019-02-05T06:20:58.347Z,95564.23
2019-02-05T06:23:32.536Z,95570.22
2019-02-05T06:26:07.055Z,95561.23
2019-02-05T06:28:42.084Z,95556.45
2019-02-05T06:31:15.775Z,95560.25
2019-02-05T06:33:50.276Z,95570.38
2019-02-05T06:36:26.378Z,95570.10
2019-02-05T06:39:14.537Z,95572.05
2019-02-05T06:42:02.760Z,95576.27
2019-02-05T06:44:47.572Z,95577.16
2019-02-05T06:47:30.829Z,95567.63
2019-02-05T06:50:06.322Z,95577.51
2019-02-05T06:52:41.058Z,95572.91
2019-02-05T06:55:18.507Z,95583.47
2019-02-05T06:57:53.015Z,95582.75
2019-02-05T07:00:27.758Z,95571.88
2019-02-05T07:03:02.872Z,95583.96
2019-02-05T07:05:37.980Z,95576.16
2019-02-05T07:08:12.520Z,95572.19
2019-02-05T07:10:47.453Z,95571.87
2019-02-05T07:13:22.291Z,95572.89
2019-02-05T07:15:57.595Z,95572.96
2019-02-05T07:18:32.183Z,95569.95
2019-02-05T07:21:06.066Z,95574.27
2019-02-05T07:23:41.469Z,95580.41
2019-02-05T07:26:15.968Z,95578.50
2019-02-05T07:28:58.007Z,95585.59
2019-02-05T07:31:26.174Z,95583.81
2019-02-05T07:34:00.578Z,95589.24
2019-02-05T07:36:37.366Z,95585.73
2019-02-05T07:39:12.890Z,95587.44
2019-02-05T07:41:48.495Z,95586.41
2019-02-05T07:44:28.590Z,95591.90
2019-02-05T07:47:02.966Z,95588.42
2019-02-05T07:49:38.043Z,95595.48
2019-02-05T07:52:12.294Z,95593.53
2019-02-05T07:54:46.820Z,95595.44
2019-02-05T07:57:21.340Z,95597.00
2019-02-05T07:59:55.729Z,95604.97
2019-02-05T08:02:29.923Z,95600.85
2019-02-05T08:05:04.632Z,95606.80
2019-02-05T08:07:39.962Z,95607.25
2019-02-05T08:10:17.803Z,95605.69
2019-02-05T08:12:52.593Z,95602.63
2019-02-05T08:15:32.216Z,95595.40
2019-02-05T08:18:08.483Z,95582.48
2019-02-05T08:20:43.172Z,95585.16
2019-02-05T08:23:17.928Z,95579.91
2019-02-05T08:25:53.187Z,95584.52
2019-02-05T08:28:27.497Z,95577.94
2019-02-05T08:31:03.878Z,95581.77
2019-02-05T08:33:40.355Z,95583.96
2019-02-05T09:38:30.174Z,95561.46
2019-02-05T09:41:04.596Z,95552.02
2019-02-05T09:43:38.987Z,95554.58
2019-02-05T09:46:13.681Z,95553.55
2019-02-05T09:48:47.716Z,95553.06
2019-02-05T09:51:22.015Z,95547.09
2019-02-05T09:53:57.066Z,95535.52
2019-02-05T09:56:32.872Z,95539.77
2019-02-05T09:59:07.065Z,95537.28
2019-02-05T10:01:41.667Z,95541.86
2019-02-05T10:04:16.538Z,95532.96
2019-02-05T10:06:51.257Z,95529.25
2019-02-05T10:09:24.870Z,95519.94
2019-02-05T10:11:58.914Z,95511.82
2019-02-05T10:14:33.976Z,95510.84
2019-02-05T10:17:08.783Z,95511.44
2019-02-05T10:19:43.312Z,95497.37
2019-02-05T10:22:18.063Z,95500.65
2019-02-05T10:24:52.555Z,95497.59
2019-02-05T10:27:27.173Z,95493.40
2019-02-05T10:30:01.784Z,95492.88
2019-02-05T10:32:38.558Z,95492.28
2019-02-05T10:35:13.178Z,95485.92
2019-02-05T10:37:47.867Z,95492.21
2019-02-05T10:40:23.833Z,95490.17
2019-02-05T10:43:07.955Z,95479.77
2019-02-05T10:45:50.529Z,95476.35
2019-02-05T10:48:25.980Z,95473.86
2019-02-05T10:51:18.348Z,95472.95
2019-02-05T10:54:02.153Z,95468.39
2019-02-05T10:56:37.901Z,95461.01
2019-02-05T10:59:19.602Z,95462.09
2019-02-05T11:01:57.473Z,95461.91
2019-02-05T11:04:31.915Z,95453.02
2019-02-05T11:07:06.418Z,95454.62
2019-02-05T11:09:41.220Z,95452.14
2019-02-05T11:12:15.420Z,95439.17
2019-02-05T11:14:50.556Z,95438.94
2019-02-05T11:17:25.100Z,95430.73
2019-02-05T11:19:59.777Z,95428.81
2019-02-05T11:22:37.489Z,95418.88
2019-02-05T11:25:12.443Z,95428.92
2019-02-05T11:27:47.666Z,95418.50
2019-02-05T11:30:24.730Z,95410.80
2019-02-05T11:32:59.183Z,95406.97
2019-02-05T11:35:34.476Z,95406.59
2019-02-05T11:38:09.663Z,95401.11
2019-02-05T11:40:44.942Z,95408.38
2019-02-05T11:43:19.031Z,95397.34
2019-02-05T11:45:54.331Z,95394.20
2019-02-05T11:48:29.274Z,95397.62
2019-02-05T11:51:04.185Z,95396.60
2019-02-05T11:53:50.617Z,95397.97
2019-02-05T11:56:37.561Z,95391.17
2019-02-05T11:59:19.969Z,95391.91
2019-02-05T12:01:54.245Z,95389.27
2019-02-05T12:04:28.774Z,95391.20
2019-02-05T12:07:03.039Z,95387.75
2019-02-05T12:09:37.251Z,95389.64
2019-02-05T12:12:11.352Z,95386.05
2019-02-05T12:14:46.501Z,95388.06
2019-02-05T12:17:21.457Z,95380.84
2019-02-05T12:19:56.846Z,95382.44
2019-02-05T12:22:30.649Z,95382.05
2019-02-05T12:25:06.112Z,95384.15
2019-02-05T12:27:40.781Z,95378.11
2019-02-05T12:30:25.245Z,95373.52
2019-02-05T12:33:01.889Z,95375.34
2019-02-05T12:35:36.424Z,95361.74
2019-02-05T12:38:11.964Z,95364.02
2019-02-05T12:40:47.818Z,95364.80
2019-02-05T12:43:22.183Z,95366.03
2019-02-05T12:45:58.043Z,95366.00
2019-02-05T12:48:32.721Z,95353.98
2019-02-05T12:51:07.894Z,95348.72
2019-02-05T12:53:43.529Z,95347.56
2019-02-05T12:56:30.043Z,95337.03
2019-02-05T12:59:15.727Z,95338.17
2019-02-05T13:02:01.625Z,95335.37
2019-02-05T13:04:36.703Z,95329.59
2019-02-05T13:07:11.131Z,95327.03
2019-02-05T13:09:46.965Z,95321.31
2019-02-05T13:12:21.562Z,95318.67
2019-02-05T13:14:56.921Z,95314.84
2019-02-05T13:17:31.858Z,95310.31
2019-02-05T13:20:08.020Z,95310.53
2019-02-05T13:22:42.315Z,95309.35
2019-02-05T13:25:20.542Z,95300.22
2019-02-05T13:27:55.483Z,95301.39
2019-02-05T13:30:31.441Z,95298.66
2019-02-05T13:33:06.035Z,95297.30
2019-02-05T13:35:40.687Z,95304.34
2019-02-05T13:38:16.252Z,95308.13
2019-02-05T13:40:50.573Z,95314.80
2019-02-05T13:43:24.927Z,95314.23
2019-02-05T13:46:10.117Z,95313.75
2019-02-05T13:48:51.825Z,95307.77
2019-02-05T13:51:26.257Z,95306.89
2019-02-05T13:54:00.910Z,95307.73
2019-02-05T13:56:35.692Z,95306.69
2019-02-05T13:59:10.132Z,95303.28
2019-02-05T14:01:44.825Z,95311.36
2019-02-05T14:04:22.092Z,95315.00
2019-02-05T14:06:57.304Z,95307.30
2019-02-05T14:09:31.566Z,95307.38
2019-02-05T14:12:07.898Z,95312.30
2019-02-05T14:14:43.642Z,95306.66
2019-02-05T14:17:19.224Z,95305.26
2019-02-05T14:19:53.891Z,95307.00
2019-02-05T14:22:29.028Z,95307.86
2019-02-05T14:25:04.253Z,95309.36
2019-02-05T14:27:39.424Z,95311.78
2019-02-05T14:30:21.143Z,95318.67
2019-02-05T14:32:56.099Z,95318.55
2019-02-05T14:35:31.415Z,95318.52
2019-02-05T14:38:06.323Z,95330.24
2019-02-05T14:40:40.749Z,95322.09
2019-02-05T14:43:15.825Z,95318.34
2019-02-05T14:46:01.656Z,95319.11
2019-02-05T14:48:44.444Z,95318.86
2019-02-05T14:51:19.787Z,95318.77
2019-02-05T14:53:54.791Z,95327.02
2019-02-05T14:56:30.192Z,95323.05
2019-02-05T14:59:04.529Z,95330.56
2019-02-05T15:01:43.280Z,95330.55
2019-02-05T15:04:16.080Z,95330.83
2019-02-05T15:06:50.283Z,95334.68
2019-02-05T15:09:24.690Z,95342.16
2019-02-05T15:11:58.711Z,95345.11
2019-02-05T15:14:34.949Z,95347.97
2019-02-05T15:17:09.543Z,95345.03
2019-02-05T15:19:43.879Z,95347.18
2019-02-05T15:22:18.179Z,95352.47
2019-02-05T15:24:53.367Z,95351.86
2019-02-05T15:27:36.840Z,95352.09
2019-02-05T15:30:14.378Z,95349.66
2019-02-05T15:33:20.701Z,95351.30
2019-02-05T15:35:59.842Z,95359.07
2019-02-05T15:38:34.676Z,95354.38
2019-02-05T15:41:09.022Z,95365.81
2019-02-05T15:43:45.678Z,95368.97
2019-02-05T15:46:20.081Z,95371.08
2019-02-05T15:48:55.491Z,95388.96
2019-02-05T15:51:30.940Z,95385.73
2019-02-05T15:54:05.105Z,95392.73
2019-02-05T15:56:39.023Z,95394.70
2019-02-05T15:59:13.009Z,95396.39
2019-02-05T16:01:48.551Z,95400.19
2019-02-05T16:04:22.935Z,95395.33
2019-02-05T16:06:58.292Z,95400.39
2019-02-05T16:09:32.477Z,95403.09
2019-02-05T16:12:07.909Z,95403.34
2019-02-05T16:14:42.888Z,95403.24
2019-02-05T16:17:17.266Z,95400.98
2019-02-05T16:20:01.512Z,95402.45
2019-02-05T16:22:47.452Z,95401.39
2019-02-05T16:25:33.144Z,95404.48
2019-02-05T16:28:13.019Z,95411.02
2019-02-05T16:30:48.242Z,95411.06
2019-02-05T16:33:23.591Z,95413.92
2019-02-05T16:35:57.941Z,95413.61
2019-02-05T16:38:33.292Z,95416.56
2019-02-05T16:41:08.320Z,95410.66
2019-02-05T16:43:42.675Z,95406.30
2019-02-05T16:46:17.366Z,95398.08
2019-02-05T16:48:51.611Z,95404.66
2019-02-05T16:51:25.721Z,95409.27
2019-02-05T16:54:00.839Z,95411.79
2019-02-05T16:56:34.551Z,95416.42
2019-02-05T16:59:19.736Z,95421.06
2019-02-05T17:02:00.034Z,95421.20
2019-02-05T17:04:34.970Z,95420.11
2019-02-05T17:07:12.414Z,95419.25
2019-02-05T17:09:47.695Z,95422.49
2019-02-05T17:12:23.897Z,95419.63
2019-02-05T17:14:58.479Z,95414.75
2019-02-05T17:17:34.148Z,95415.16
2019-02-05T17:20:11.919Z,95416.61
2019-02-05T17:22:46.403Z,95422.08
2019-02-05T17:25:22.045Z,95420.62
2019-02-05T17:27:57.212Z,95417.86
2019-02-05T17:30:36.682Z,95405.64
2019-02-05T17:33:12.228Z,95412.66
2019-02-05T17:35:47.284Z,95414.28
2019-02-05T17:38:25.427Z,95407.13
2019-02-05T17:40:58.182Z,95413.66
2019-02-05T17:43:32.700Z,95413.28
2019-02-05T17:46:08.078Z,95406.74
2019-02-05T17:48:43.827Z,95407.92
2019-02-05T17:51:19.377Z,95412.61
2019-02-05T17:53:53.858Z,95405.48
2019-02-05T17:56:31.098Z,95406.33
2019-02-05T17:59:17.799Z,95404.22
2019-02-05T18:02:00.512Z,95414.64
2019-02-05T18:04:35.630Z,95413.86
2019-02-05T18:07:18.749Z,95407.80
2019-02-05T18:09:53.197Z,95408.67
2019-02-05T18:12:38.712Z,95406.09
2019-02-05T18:15:18.256Z,95402.41
2019-02-05T18:17:53.935Z,95409.47
2019-02-05T18:20:28.089Z,95403.89
2019-02-05T18:23:02.644Z,95406.80
2019-02-05T18:25:37.041Z,95408.46
2019-02-05T18:28:11.821Z,95406.65
2019-02-05T18:30:46.047Z,95409.71
2019-02-05T18:33:21.133Z,95406.09
2019-02-05T18:35:56.078Z,95414.69
2019-02-05T18:38:30.136Z,95406.12
2019-02-05T18:41:04.881Z,95409.91
2019-02-05T18:43:39.742Z,95412.66
2019-02-05T18:46:16.633Z,95414.28
2019-02-05T18:49:06.125Z,95410.50
2019-02-05T18:51:36.223Z,95406.55
2019-02-05T18:54:15.248Z,95404.71
2019-02-05T18:56:49.596Z,95406.02
2019-02-05T18:59:24.127Z,95419.03
2019-02-05T19:02:02.135Z,95420.22
2019-02-05T19:04:36.764Z,95421.78
2019-02-05T19:07:10.801Z,95427.63
2019-02-05T19:09:45.316Z,95420.75
2019-02-05T19:12:19.735Z,95413.71
2019-02-05T19:14:55.467Z,95419.16
2019-02-05T19:17:29.186Z,95415.48
2019-02-05T19:20:04.315Z,95408.80
2019-02-05T19:22:42.327Z,95410.89
2019-02-05T19:25:40.566Z,95408.14
2019-02-05T19:28:31.008Z,95399.95
2019-02-05T19:31:22.805Z,95397.59
2019-02-05T19:33:56.921Z,95398.30
2019-02-05T19:36:32.223Z,95403.59
2019-02-05T19:39:08.933Z,95399.59
2019-02-05T19:41:43.759Z,95398.84
2019-02-05T19:44:18.244Z,95398.95
2019-02-05T19:47:08.059Z,95388.17
2019-02-05T19:49:57.633Z,95388.89
2019-02-05T19:52:42.206Z,95374.17
2019-02-05T19:55:25.893Z,95372.83
2019-02-05T19:58:00.983Z,95371.89
2019-02-05T20:00:43.724Z,95369.51
2019-02-05T20:03:19.073Z,95373.98
2019-02-05T20:06:02.285Z,95365.16
2019-02-05T20:08:37.295Z,95355.34
2019-02-05T20:11:12.367Z,95358.03
2019-02-05T20:13:47.516Z,95363.72
2019-02-05T20:16:24.026Z,95364.22
2019-02-05T20:18:58.225Z,95369.91
2019-02-05T20:21:32.998Z,95360.84
2019-02-05T20:24:07.287Z,95365.22
2019-02-05T20:26:43.614Z,95367.72
2019-02-05T20:29:17.888Z,95366.70
2019-02-05T20:32:02.270Z,95373.38
2019-02-05T20:34:36.582Z,95373.83
2019-02-05T20:37:16.474Z,95359.61
2019-02-05T20:39:50.886Z,95361.63
2019-02-05T20:42:25.099Z,95369.45
2019-02-05T20:44:59.623Z,95359.59
2019-02-05T20:47:33.632Z,95365.37
2019-02-05T20:50:10.955Z,95360.92
2019-02-05T20:52:46.109Z,95370.03
2019-02-05T20:55:22.117Z,95368.23
2019-02-05T20:57:56.276Z,95362.69
2019-02-05T21:00:39.567Z,95352.86
2019-02-05T21:03:26.620Z,95357.39
2019-02-05T21:06:11.406Z,95354.17
2019-02-05T21:08:50.830Z,95349.63
2019-02-05T21:11:25.464Z,95339.74
2019-02-05T21:13:59.657Z,95323.36
2019-02-05T21:16:34.104Z,95324.16
2019-02-05T21:19:08.925Z,95321.66
2019-02-05T21:21:44.306Z,95324.72
2019-02-05T21:24:30.736Z,95319.15
2019-02-05T21:27:17.430Z,95316.25
2019-02-05T21:30:00.555Z,95314.39
2019-02-05T21:32:35.612Z,95315.02
2019-02-05T21:35:11.072Z,95311.15
2019-02-05T21:37:45.663Z,95315.86
2019-02-05T21:40:21.679Z,95310.71
2019-02-05T21:42:56.589Z,95322.89
2019-02-05T21:45:31.110Z,95324.16
2019-02-05T21:48:05.704Z,95327.38
2019-02-05T21:50:40.285Z,95331.08
2019-02-05T21:53:14.084Z,95332.10
2019-02-05T21:55:51.249Z,95338.34
2019-02-05T21:58:25.531Z,95332.52
2019-02-05T22:00:59.497Z,95332.05
2019-02-05T22:03:34.522Z,95333.41
2019-02-05T22:06:08.379Z,95326.07
2019-02-05T22:08:53.364Z,95325.37
2019-02-05T22:11:35.806Z,95323.45
2019-02-05T22:14:10.143Z,95317.41
2019-02-05T22:16:44.221Z,95318.81
2019-02-05T22:19:21.098Z,95315.46
2019-02-05T22:21:55.130Z,95319.71
2019-02-05T22:24:29.341Z,95310.11
2019-02-05T22:27:04.090Z,95301.83
2019-02-05T22:29:38.462Z,95303.33
2019-02-05T22:32:12.329Z,95299.98
2019-02-05T22:34:46.545Z,95306.08
2019-02-05T22:37:21.040Z,95295.34
2019-02-05T22:39:55.215Z,95293.72
2019-02-05T22:42:29.315Z,95305.55
2019-02-05T22:45:04.158Z,95293.80
2019-02-05T22:47:38.437Z,95296.14
2019-02-05T22:50:18.334Z,95291.09
2019-02-05T22:52:52.640Z,95291.78
2019-02-05T22:55:27.101Z,95286.22
2019-02-05T22:58:01.314Z,95284.51
2019-02-05T23:01:13.578Z,95285.84
2019-02-05T23:04:10.666Z,95277.84
2019-02-05T23:07:01.830Z,95279.34
2019-02-05T23:09:51.200Z,95265.98
2019-02-05T23:12:36.843Z,95262.66
2019-02-05T23:15:22.943Z,95255.45
2019-02-05T23:17:57.963Z,95253.95
2019-02-05T23:20:32.424Z,95250.09
2019-02-05T23:23:06.822Z,95244.52
2019-02-05T23:25:41.161Z,95242.39
2019-02-05T23:28:15.986Z,95243.70
2019-02-05T23:30:50.574Z,95238.78
2019-02-05T23:33:24.586Z,95239.77
2019-02-05T23:35:58.443Z,95229.77
2019-02-05T23:38:32.738Z,95221.97
2019-02-05T23:41:07.443Z,95211.57
2019-02-05T23:43:41.387Z,95200.75
2019-02-05T23:46:15.201Z,95203.38
2019-02-05T23:48:48.005Z,95200.22
2019-02-05T23:51:20.805Z,95199.31
2019-02-05T23:53:56.071Z,95203.06
2019-02-05T23:56:31.625Z,95196.68
2019-02-05T23:59:06.062Z,95212.97
